createdAt,value
2022-08-17T00:02:26.216Z,9.70
2022-08-17T00:04:55.272Z,7.65
2022-08-17T00:07:22.723Z,8.02
2022-08-17T00:09:49.242Z,7.20
2022-08-17T00:12:42.744Z,6.30
2022-08-17T00:15:02.448Z,8.43
2022-08-17T00:17:29.083Z,8.07
2022-08-17T00:19:55.585Z,8.73
2022-08-17T00:22:31.974Z,9.40
2022-08-17T00:25:07.061Z,8.65
2022-08-17T00:27:33.659Z,6.25
2022-08-17T00:30:00.389Z,11.27
2022-08-17T00:33:14.352Z,7.97
2022-08-17T00:35:18.266Z,7.78
2022-08-17T00:37:44.853Z,7.63
2022-08-17T00:40:14.668Z,8.95
2022-08-17T00:42:42.739Z,7.10
2022-08-17T00:45:17.583Z,7.75
2022-08-17T00:47:44.653Z,9.45
2022-08-17T00:50:14.092Z,13.18
2022-08-17T00:52:52.616Z,10.05
2022-08-17T00:55:19.981Z,10.73
2022-08-17T00:57:53.461Z,6.80
2022-08-17T01:00:32.347Z,8.40
2022-08-17T01:03:26.000Z,7.88
2022-08-17T01:05:56.718Z,9.95
2022-08-17T01:08:27.331Z,8.50
2022-08-17T01:10:59.779Z,8.15
2022-08-17T01:13:41.202Z,9.30
2022-08-17T01:16:20.329Z,9.63
2022-08-17T01:18:50.553Z,8.77
2022-08-17T01:21:42.071Z,10.18
2022-08-17T01:24:08.938Z,9.02
2022-08-17T01:26:37.958Z,8.63
2022-08-17T01:29:06.048Z,8.93
2022-08-17T01:31:38.743Z,11.60
2022-08-17T01:34:10.615Z,8.02
2022-08-17T01:36:39.788Z,7.32
2022-08-17T01:39:11.654Z,8.10
2022-08-17T01:41:40.940Z,7.68
2022-08-17T01:44:08.809Z,9.25
2022-08-17T01:46:37.106Z,8.20
2022-08-17T01:49:09.176Z,10.27
2022-08-17T01:51:35.781Z,7.03
2022-08-17T01:54:05.572Z,7.13
2022-08-17T01:56:35.023Z,10.77
2022-08-17T01:59:01.570Z,11.27
2022-08-17T02:01:30.598Z,9.63
2022-08-17T02:04:00.754Z,11.80
2022-08-17T02:06:52.675Z,7.75
2022-08-17T02:09:25.867Z,8.85
2022-08-17T02:11:56.887Z,7.25
2022-08-17T02:14:23.689Z,7.50
2022-08-17T02:16:50.410Z,8.98
2022-08-17T02:19:17.143Z,8.10
2022-08-17T02:21:47.988Z,7.32
2022-08-17T02:24:58.685Z,8.27
2022-08-17T02:27:06.830Z,12.05
2022-08-17T02:29:33.398Z,7.05
2022-08-17T02:32:00.156Z,10.07
2022-08-17T02:34:27.447Z,8.18
2022-08-17T02:36:54.044Z,11.93
2022-08-17T02:39:20.575Z,8.52
2022-08-17T02:41:47.344Z,6.95
2022-08-17T02:44:13.900Z,7.13
2022-08-17T02:47:00.811Z,7.13
2022-08-17T02:49:27.459Z,9.05
2022-08-17T02:51:53.951Z,7.55
2022-08-17T02:54:39.953Z,7.03
2022-08-17T02:57:10.017Z,9.55
2022-08-17T02:59:37.749Z,9.18
2022-08-17T03:02:06.204Z,9.65
2022-08-17T03:04:35.135Z,9.38
2022-08-17T03:07:02.601Z,6.65
2022-08-17T03:09:29.118Z,8.45
2022-08-17T03:11:56.130Z,9.70
2022-08-17T03:14:26.160Z,8.82
2022-08-17T03:16:52.990Z,11.95
2022-08-17T03:19:19.636Z,7.45
2022-08-17T03:21:46.192Z,6.20
2022-08-17T03:24:21.554Z,10.30
2022-08-17T03:26:55.121Z,8.52
2022-08-17T03:29:21.766Z,7.30
2022-08-17T03:31:49.673Z,8.30
2022-08-17T03:34:17.391Z,11.52
2022-08-17T03:36:44.368Z,9.40
2022-08-17T03:39:11.033Z,12.75
2022-08-17T03:41:38.829Z,9.85
2022-08-17T03:44:05.410Z,7.43
2022-08-17T03:46:50.677Z,7.65
2022-08-17T03:49:35.816Z,8.57
2022-08-17T03:52:20.795Z,7.63
2022-08-17T03:55:06.159Z,6.88
2022-08-17T03:57:32.701Z,7.15
2022-08-17T03:59:59.773Z,5.63
2022-08-17T04:02:33.687Z,6.82
2022-08-17T04:05:01.202Z,6.95
2022-08-17T04:07:30.237Z,5.85
2022-08-17T04:09:58.054Z,7.30
2022-08-17T04:12:26.373Z,7.57
2022-08-17T04:14:55.038Z,6.10
2022-08-17T04:17:29.108Z,9.23
2022-08-17T04:19:56.327Z,7.20
2022-08-17T04:22:32.868Z,7.35
2022-08-17T04:25:18.961Z,6.47
2022-08-17T04:27:45.500Z,8.60
2022-08-17T04:30:13.009Z,7.40
2022-08-17T04:33:07.391Z,7.45
2022-08-17T04:35:41.141Z,8.45
2022-08-17T04:38:10.224Z,11.98
2022-08-17T04:40:55.432Z,7.57
2022-08-17T04:43:24.871Z,6.30
2022-08-17T04:45:57.384Z,9.18
2022-08-17T04:48:29.737Z,7.82
2022-08-17T04:51:04.142Z,7.60
2022-08-17T04:53:30.767Z,6.22
2022-08-17T04:55:58.987Z,5.88
2022-08-17T04:58:25.571Z,7.82
2022-08-17T05:00:52.683Z,6.10
2022-08-17T05:03:19.467Z,14.32
2022-08-17T05:05:49.519Z,8.98
2022-08-17T05:08:19.095Z,8.10
2022-08-17T05:10:47.389Z,7.95
2022-08-17T05:13:19.675Z,5.65
2022-08-17T05:15:48.291Z,9.73
2022-08-17T05:18:16.611Z,8.10
2022-08-17T05:20:43.538Z,8.32
2022-08-17T05:23:12.767Z,9.80
2022-08-17T05:25:42.433Z,6.57
2022-08-17T05:28:14.845Z,11.75
2022-08-17T05:30:43.339Z,5.78
2022-08-17T05:33:20.766Z,8.10
2022-08-17T05:35:51.613Z,6.68
2022-08-17T05:38:20.259Z,8.98
2022-08-17T05:40:47.303Z,7.53
2022-08-17T05:43:23.265Z,6.45
2022-08-17T05:45:57.618Z,8.85
2022-08-17T05:48:35.530Z,10.98
2022-08-17T05:51:28.660Z,8.63
2022-08-17T05:54:14.564Z,10.20
2022-08-17T05:56:43.955Z,8.45
2022-08-17T05:59:29.311Z,8.55
2022-08-17T06:01:58.795Z,10.85
2022-08-17T06:04:35.972Z,9.18
2022-08-17T06:07:16.641Z,6.93
2022-08-17T06:09:43.159Z,7.07
2022-08-17T06:12:39.455Z,10.93
2022-08-17T06:15:12.741Z,7.95
2022-08-17T06:17:39.978Z,8.63
2022-08-17T06:20:14.236Z,9.02
2022-08-17T06:22:50.828Z,7.80
2022-08-17T06:25:23.444Z,7.88
2022-08-17T06:27:56.348Z,8.65
2022-08-17T06:30:27.489Z,12.10
2022-08-17T06:33:02.739Z,7.93
2022-08-17T06:35:34.654Z,16.75
2022-08-17T06:38:49.857Z,7.03
2022-08-17T06:41:28.531Z,15.40
2022-08-17T06:44:43.168Z,11.55
2022-08-17T06:47:08.942Z,14.15
2022-08-17T06:49:55.221Z,11.80
2022-08-17T06:52:47.241Z,12.02
2022-08-17T06:55:21.234Z,9.60
2022-08-17T06:57:53.532Z,11.50
2022-08-17T07:00:23.868Z,19.33
2022-08-17T07:02:58.216Z,11.52
2022-08-17T07:05:37.672Z,13.53
2022-08-17T07:08:38.424Z,12.05
2022-08-17T07:11:38.309Z,11.32
2022-08-17T07:14:37.965Z,12.18
2022-08-17T07:17:13.879Z,12.00
2022-08-17T07:19:45.336Z,11.98
2022-08-17T07:22:14.841Z,14.02
2022-08-17T07:24:51.422Z,10.75
2022-08-17T07:27:22.482Z,16.00
2022-08-17T07:29:53.645Z,11.07
2022-08-17T07:32:29.144Z,13.35
2022-08-17T07:35:40.747Z,13.82
2022-08-17T07:38:26.130Z,11.63
2022-08-17T07:41:03.101Z,11.23
2022-08-17T07:43:41.951Z,12.82
2022-08-17T07:46:30.301Z,13.90
2022-08-17T07:49:08.674Z,12.50
2022-08-17T07:51:44.241Z,10.43
2022-08-17T07:54:23.049Z,13.93
2022-08-17T07:56:52.403Z,13.45
2022-08-17T07:59:33.816Z,13.88
2022-08-17T08:02:05.321Z,14.07
2022-08-17T08:07:37.336Z,16.10
2022-08-17T08:10:13.864Z,18.98
2022-08-17T08:12:44.024Z,14.65
2022-08-17T08:15:21.820Z,12.73
2022-08-17T08:17:55.369Z,13.57
2022-08-17T08:20:53.494Z,9.70
2022-08-17T08:23:59.229Z,14.95
2022-08-17T08:26:40.579Z,17.40
2022-08-17T08:29:18.176Z,13.88
2022-08-17T08:31:57.169Z,13.93
2022-08-17T08:35:02.777Z,15.57
2022-08-17T08:37:49.885Z,12.13
2022-08-17T08:40:31.912Z,12.48
2022-08-17T08:43:30.494Z,13.43
2022-08-17T08:46:21.375Z,13.05
2022-08-17T08:49:39.061Z,15.05
2022-08-17T08:52:31.083Z,16.58
2022-08-17T08:55:10.586Z,15.65
2022-08-17T08:57:43.986Z,15.93
2022-08-17T09:00:16.140Z,13.05
2022-08-17T09:02:45.754Z,17.75
2022-08-17T09:05:57.070Z,17.17
2022-08-17T09:08:47.779Z,13.10
2022-08-17T09:12:02.412Z,13.35
2022-08-17T09:14:45.171Z,16.75
2022-08-17T09:17:29.794Z,12.52
2022-08-17T09:20:27.196Z,14.65
2022-08-17T09:23:03.359Z,15.68
2022-08-17T09:25:34.889Z,15.57
2022-08-17T09:28:06.500Z,13.90
2022-08-17T09:30:43.554Z,17.20
2022-08-17T09:33:12.832Z,17.17
2022-08-17T09:35:46.822Z,15.65
2022-08-17T09:38:35.494Z,13.88
2022-08-17T09:41:02.080Z,18.38
2022-08-17T09:43:38.875Z,14.85
2022-08-17T09:46:17.070Z,14.95
2022-08-17T09:48:50.782Z,18.65
2022-08-17T09:51:22.292Z,16.90
2022-08-17T09:53:50.113Z,15.15
2022-08-17T09:56:28.863Z,15.52
2022-08-17T09:59:20.077Z,17.25
2022-08-17T10:02:06.221Z,18.13
2022-08-17T10:04:39.752Z,19.88
2022-08-17T10:07:25.134Z,18.02
2022-08-17T10:10:02.860Z,17.13
2022-08-17T10:12:47.874Z,16.85
2022-08-17T10:15:22.518Z,15.68
2022-08-17T10:17:56.356Z,17.55
2022-08-17T10:20:42.880Z,22.48
2022-08-17T10:23:45.124Z,16.75
2022-08-17T10:26:18.753Z,19.15
2022-08-17T10:28:48.027Z,19.63
2022-08-17T10:31:40.503Z,16.50
2022-08-17T10:34:41.485Z,18.55
2022-08-17T10:37:28.237Z,16.92
2022-08-17T10:40:24.522Z,17.38
2022-08-17T10:42:56.046Z,18.00
2022-08-17T10:45:26.370Z,18.75
2022-08-17T10:48:05.876Z,16.30
2022-08-17T10:50:48.001Z,18.00
2022-08-17T10:53:32.905Z,17.48
2022-08-17T10:56:14.493Z,17.90
2022-08-17T10:58:47.062Z,20.65
2022-08-17T11:01:13.750Z,19.40
2022-08-17T11:03:55.812Z,24.35
2022-08-17T11:06:25.656Z,22.35
2022-08-17T11:09:00.916Z,19.80
2022-08-17T11:11:47.279Z,21.88
2022-08-17T11:14:36.075Z,20.42
2022-08-17T11:17:21.977Z,22.25
2022-08-17T11:20:13.266Z,23.15
2022-08-17T11:22:59.020Z,22.55
2022-08-17T11:25:38.539Z,23.38
2022-08-17T11:28:06.956Z,19.23
2022-08-17T11:30:50.968Z,21.83
2022-08-17T11:34:13.767Z,21.33
2022-08-17T11:36:46.569Z,26.88
2022-08-17T11:39:36.988Z,21.75
2022-08-17T11:42:09.826Z,24.80
2022-08-17T11:44:51.173Z,28.63
2022-08-17T11:48:26.562Z,27.77
2022-08-17T11:51:35.629Z,24.85
2022-08-17T11:54:34.058Z,28.00
2022-08-17T11:57:27.377Z,26.92
2022-08-17T11:59:55.430Z,27.60
2022-08-17T12:02:32.622Z,27.00
2022-08-17T12:05:14.377Z,26.70
2022-08-17T12:07:53.203Z,26.27
2022-08-17T12:10:31.665Z,24.92
2022-08-17T12:13:14.120Z,28.52
2022-08-17T12:15:50.158Z,24.90
2022-08-17T12:18:24.605Z,29.95
2022-08-17T12:21:28.511Z,29.98
2022-08-17T12:23:59.956Z,26.73
2022-08-17T12:26:31.553Z,30.08
2022-08-17T12:29:09.348Z,25.45
2022-08-17T12:31:47.649Z,26.73
2022-08-17T12:34:27.245Z,31.65
2022-08-17T12:37:01.310Z,27.90
2022-08-17T12:39:30.038Z,27.75
2022-08-17T12:42:03.948Z,28.17
2022-08-17T12:44:36.269Z,29.85
2022-08-17T12:47:22.827Z,25.40
2022-08-17T12:50:08.167Z,27.38
2022-08-17T12:52:59.740Z,28.30
2022-08-17T12:55:32.711Z,30.10
2022-08-17T12:58:01.809Z,27.58
2022-08-17T13:00:37.918Z,32.40
2022-08-17T13:03:09.526Z,29.60
2022-08-17T13:05:42.000Z,31.73
2022-08-17T13:08:17.980Z,31.40
2022-08-17T13:10:54.891Z,32.55
2022-08-17T13:13:26.710Z,29.92
2022-08-17T13:16:01.781Z,35.72
2022-08-17T13:18:45.411Z,30.75
2022-08-17T13:21:23.877Z,37.83
2022-08-17T13:24:13.662Z,32.92
2022-08-17T13:26:45.374Z,34.47
2022-08-17T13:29:25.980Z,32.47
2022-08-17T13:32:13.503Z,34.13
2022-08-17T13:35:13.217Z,32.78
2022-08-17T13:37:35.159Z,39.03
2022-08-17T13:40:07.742Z,35.30
2022-08-17T13:42:52.262Z,33.60
2022-08-17T13:45:35.193Z,38.55
2022-08-17T13:48:11.121Z,39.03
2022-08-17T13:53:26.088Z,37.05
2022-08-17T13:56:00.778Z,37.65
2022-08-17T13:58:51.257Z,41.80
2022-08-17T14:01:39.421Z,37.60
2022-08-17T14:04:15.243Z,37.80
2022-08-17T14:06:55.423Z,34.08
2022-08-17T14:09:26.158Z,37.55
2022-08-17T14:11:55.398Z,36.53
2022-08-17T14:14:23.172Z,37.95
2022-08-17T14:16:51.760Z,37.83
2022-08-17T14:19:19.390Z,36.55
2022-08-17T14:21:46.704Z,36.45
2022-08-17T14:24:22.949Z,35.47
2022-08-17T14:26:52.277Z,37.90
2022-08-17T14:29:20.516Z,39.58
2022-08-17T14:31:48.526Z,41.10
2022-08-17T14:34:20.460Z,39.10
2022-08-17T14:36:48.419Z,35.42
2022-08-17T14:39:16.424Z,42.38
2022-08-17T14:41:43.536Z,34.38
2022-08-17T14:44:13.430Z,38.75
2022-08-17T14:46:44.418Z,36.50
2022-08-17T14:49:13.336Z,38.88
2022-08-17T14:51:43.680Z,37.65
2022-08-17T14:54:11.895Z,35.25
2022-08-17T14:57:04.679Z,35.90
2022-08-17T14:59:45.581Z,36.05
2022-08-17T15:02:13.104Z,35.53
2022-08-17T15:04:44.936Z,36.90
2022-08-17T15:07:12.235Z,37.00
2022-08-17T15:09:39.004Z,40.50
2022-08-17T15:12:08.930Z,38.63
2022-08-17T15:14:35.891Z,40.78
2022-08-17T15:17:03.548Z,43.25
2022-08-17T15:19:30.200Z,41.00
2022-08-17T15:21:56.810Z,37.72
2022-08-17T15:24:23.379Z,37.50
2022-08-17T15:26:50.143Z,35.53
2022-08-17T15:29:16.954Z,32.33
2022-08-17T15:31:43.702Z,34.78
2022-08-17T15:34:10.283Z,35.15
2022-08-17T15:36:37.040Z,38.78
2022-08-17T15:39:05.420Z,45.47
2022-08-17T15:41:32.202Z,37.22
2022-08-17T15:43:58.880Z,34.15
2022-08-17T15:46:26.800Z,34.67
2022-08-17T15:48:58.086Z,31.13
2022-08-17T15:51:30.291Z,30.70
2022-08-17T15:54:04.528Z,29.83
2022-08-17T15:56:46.157Z,34.03
2022-08-17T15:59:12.766Z,31.17
2022-08-17T16:03:13.819Z,29.17
2022-08-17T16:04:29.662Z,29.30
2022-08-17T16:06:58.052Z,29.00
2022-08-17T16:09:24.673Z,26.65
2022-08-17T16:11:53.850Z,30.05
2022-08-17T16:14:22.325Z,26.40
2022-08-17T16:16:49.721Z,23.83
2022-08-17T16:19:16.254Z,21.20
2022-08-17T16:21:43.393Z,22.40
2022-08-17T16:24:13.307Z,21.30
2022-08-17T16:26:41.960Z,18.52
2022-08-17T16:29:08.910Z,18.45
2022-08-17T16:31:37.479Z,19.88
2022-08-17T16:34:16.953Z,19.98
2022-08-17T16:36:53.689Z,17.23
2022-08-17T16:39:26.733Z,17.30
2022-08-17T16:41:53.521Z,17.95
2022-08-17T16:44:21.645Z,17.80
2022-08-17T16:46:48.703Z,17.25
2022-08-17T16:49:35.116Z,15.65
2022-08-17T16:52:06.267Z,17.63
2022-08-17T16:54:33.392Z,15.38
2022-08-17T16:57:00.158Z,16.70
2022-08-17T16:59:31.020Z,14.93
2022-08-17T17:02:12.874Z,15.65
2022-08-17T17:04:54.272Z,15.52
2022-08-17T17:07:25.659Z,15.70
2022-08-17T17:09:55.361Z,15.07
2022-08-17T17:13:00.837Z,16.75
2022-08-17T17:15:10.583Z,11.50
2022-08-17T17:17:38.652Z,12.85
2022-08-17T17:20:21.077Z,11.77
2022-08-17T17:22:49.587Z,12.15
2022-08-17T17:25:16.199Z,10.68
2022-08-17T17:28:01.882Z,11.82
2022-08-17T17:30:38.121Z,10.32
2022-08-17T17:33:14.510Z,11.02
2022-08-17T17:35:46.115Z,13.18
2022-08-17T17:38:21.358Z,10.15
2022-08-17T17:40:53.797Z,12.77
2022-08-17T17:43:44.595Z,10.82
2022-08-17T17:46:39.709Z,12.80
2022-08-17T17:49:06.536Z,12.65
2022-08-17T17:52:06.566Z,11.48
2022-08-17T17:54:56.175Z,11.93
2022-08-17T17:57:47.726Z,11.45
2022-08-17T18:00:23.442Z,12.32
2022-08-17T18:03:26.608Z,10.55
2022-08-17T18:06:24.408Z,12.90
2022-08-17T18:09:09.061Z,13.80
2022-08-17T18:11:42.754Z,9.23
2022-08-17T18:14:47.085Z,9.57
2022-08-17T18:17:14.487Z,10.85
2022-08-17T18:19:41.503Z,11.35
2022-08-17T18:22:15.259Z,10.77
2022-08-17T18:24:45.510Z,11.65
2022-08-17T18:27:25.758Z,11.52
2022-08-17T18:29:55.548Z,11.25
2022-08-17T18:32:31.095Z,10.32
2022-08-17T18:37:38.930Z,12.60
2022-08-17T18:40:31.148Z,15.48
2022-08-17T18:43:00.781Z,10.07
2022-08-17T18:45:33.453Z,9.38
2022-08-17T18:48:00.453Z,11.25
2022-08-17T18:50:34.798Z,9.77
2022-08-17T18:53:20.789Z,9.85
2022-08-17T18:56:31.213Z,9.73
2022-08-17T18:58:57.770Z,11.52
2022-08-17T19:01:41.704Z,9.32
2022-08-17T19:04:27.944Z,8.95
2022-08-17T19:07:05.363Z,9.73
2022-08-17T19:09:35.900Z,12.60
2022-08-17T19:12:06.093Z,9.07
2022-08-17T19:14:33.022Z,13.20
2022-08-17T19:17:09.165Z,11.73
2022-08-17T19:20:09.301Z,13.00
2022-08-17T19:22:56.435Z,13.73
2022-08-17T19:25:29.203Z,12.10
2022-08-17T19:28:06.329Z,14.23
2022-08-17T19:30:54.241Z,16.48
2022-08-17T19:33:20.858Z,15.23
2022-08-17T19:36:00.894Z,17.00
2022-08-17T19:39:03.317Z,16.35
2022-08-17T19:41:54.772Z,15.70
2022-08-17T19:44:34.817Z,17.17
2022-08-17T19:47:54.223Z,17.38
2022-08-17T19:50:38.440Z,17.42
2022-08-17T19:53:41.706Z,19.50
2022-08-17T19:56:34.253Z,18.92
2022-08-17T19:59:03.442Z,19.40
2022-08-17T20:02:19.189Z,17.52
2022-08-17T20:04:49.032Z,18.05
2022-08-17T20:07:22.043Z,18.88
2022-08-17T20:10:04.786Z,18.63
2022-08-17T20:12:36.676Z,18.17
2022-08-17T20:15:16.912Z,17.60
2022-08-17T20:17:46.644Z,15.07
2022-08-17T20:20:30.407Z,20.20
2022-08-17T20:23:18.959Z,18.95
2022-08-17T20:26:15.915Z,17.15
2022-08-17T20:29:03.978Z,23.27
2022-08-17T20:31:39.528Z,22.25
2022-08-17T20:34:38.081Z,20.20
2022-08-17T20:37:09.427Z,20.40
2022-08-17T20:39:45.582Z,22.45
2022-08-17T20:42:21.018Z,23.95
2022-08-17T20:45:02.709Z,28.80
2022-08-17T20:47:55.131Z,21.92
2022-08-17T20:50:44.045Z,23.15
2022-08-17T20:53:15.164Z,21.55
2022-08-17T20:55:52.276Z,24.42
2022-08-17T20:58:21.088Z,26.25
2022-08-17T21:00:56.677Z,24.10
2022-08-17T21:03:23.526Z,25.17
2022-08-17T21:06:17.065Z,24.83
2022-08-17T21:08:53.785Z,28.55
2022-08-17T21:11:56.989Z,26.20
2022-08-17T21:14:31.393Z,28.10
2022-08-17T21:17:12.081Z,26.80
2022-08-17T21:20:11.455Z,25.42
2022-08-17T21:22:47.835Z,29.83
2022-08-17T21:25:52.829Z,29.00
2022-08-17T21:29:00.474Z,27.73
2022-08-17T21:31:33.199Z,32.72
2022-08-17T21:34:16.777Z,33.80
2022-08-17T21:36:44.550Z,29.85
2022-08-17T21:39:17.308Z,31.85
2022-08-17T21:41:54.398Z,28.65
2022-08-17T21:44:47.125Z,31.20
2022-08-17T21:47:13.840Z,32.35
2022-08-17T21:49:40.380Z,33.92
2022-08-17T21:52:07.551Z,32.47
2022-08-17T21:54:38.741Z,31.38
2022-08-17T21:57:15.584Z,34.78
2022-08-17T21:59:44.180Z,34.22
2022-08-17T22:02:51.861Z,34.22
2022-08-17T22:05:31.087Z,35.42
2022-08-17T22:08:03.924Z,37.30
2022-08-17T22:10:35.041Z,36.70
2022-08-17T22:13:23.169Z,38.65
2022-08-17T22:15:51.022Z,39.05
2022-08-17T22:18:25.085Z,38.88
2022-08-17T22:20:55.010Z,39.00
2022-08-17T22:23:41.677Z,38.60
2022-08-17T22:26:12.723Z,36.28
2022-08-17T22:28:54.444Z,41.22
2022-08-17T22:31:23.067Z,40.15
2022-08-17T22:34:02.786Z,38.97
2022-08-17T22:36:33.974Z,39.72
2022-08-17T22:39:22.994Z,43.05
2022-08-17T22:42:00.726Z,46.45
2022-08-17T22:44:29.423Z,43.15
2022-08-17T22:47:26.831Z,49.28
2022-08-17T22:49:58.352Z,46.75
2022-08-17T22:52:33.916Z,50.88
2022-08-17T22:55:23.727Z,54.13
2022-08-17T22:58:09.496Z,49.22
2022-08-17T23:00:41.980Z,54.78
2022-08-17T23:03:14.491Z,49.63
2022-08-17T23:05:44.878Z,49.90
2022-08-17T23:08:12.719Z,54.47
2022-08-17T23:10:41.625Z,51.22
2022-08-17T23:13:11.830Z,55.42
2022-08-17T23:15:40.426Z,55.20
2022-08-17T23:18:07.736Z,57.90
2022-08-17T23:20:36.464Z,55.65
2022-08-17T23:23:06.695Z,52.38
2022-08-17T23:25:35.150Z,50.53
2022-08-17T23:28:05.079Z,49.53
2022-08-17T23:30:35.404Z,50.42
2022-08-17T23:33:08.822Z,55.25
2022-08-17T23:35:39.889Z,54.25
2022-08-17T23:38:11.604Z,59.55
2022-08-17T23:40:39.653Z,50.67
2022-08-17T23:43:25.370Z,54.92
2022-08-17T23:45:55.284Z,53.25
2022-08-17T23:48:30.343Z,53.08
2022-08-17T23:51:09.771Z,53.70
2022-08-17T23:53:41.923Z,49.35
2022-08-17T23:56:11.202Z,51.75
2022-08-17T23:58:42.892Z,54.60
